createdAt,value
2017-11-24T00:00:23.489Z,7.30
2017-11-24T00:02:51.800Z,7.40
2017-11-24T00:05:19.392Z,7.30
2017-11-24T00:07:46.940Z,7.30
2017-11-24T00:10:14.484Z,7.40
2017-11-24T00:12:42.079Z,7.40
2017-11-24T00:15:09.627Z,7.40
2017-11-24T00:17:37.176Z,7.40
2017-11-24T00:20:04.772Z,7.40
2017-11-24T00:22:32.320Z,7.30
2017-11-24T00:24:59.868Z,7.30
2017-11-24T00:27:27.657Z,7.20
2017-11-24T00:29:55.202Z,7.30
2017-11-24T00:32:22.748Z,7.20
2017-11-24T00:34:51.269Z,7.20
2017-11-24T00:37:18.816Z,7.10
2017-11-24T00:39:47.128Z,7.10
2017-11-24T00:42:14.809Z,7.10
2017-11-24T00:44:42.352Z,7.10
2017-11-24T00:47:09.901Z,7.10
2017-11-24T00:49:37.484Z,7.10
2017-11-24T00:52:05.801Z,7.10
2017-11-24T00:54:33.339Z,7.10
2017-11-24T00:57:01.701Z,7.00
2017-11-24T00:59:29.253Z,7.00
2017-11-24T01:01:56.799Z,7.00
2017-11-24T01:04:24.508Z,6.90
2017-11-24T01:06:52.058Z,6.90
2017-11-24T01:09:19.621Z,6.90
2017-11-24T01:11:47.220Z,6.90
2017-11-24T01:14:14.765Z,6.90
2017-11-24T01:16:42.460Z,6.90
2017-11-24T01:19:10.044Z,6.90
2017-11-24T01:21:37.587Z,6.80
2017-11-24T01:24:05.125Z,6.80
2017-11-24T01:26:33.478Z,6.70
2017-11-24T01:29:01.020Z,6.70
2017-11-24T01:31:28.584Z,6.70
2017-11-24T01:33:56.176Z,6.70
2017-11-24T01:36:23.725Z,6.70
2017-11-24T01:38:51.274Z,6.60
2017-11-24T01:41:19.729Z,6.70
2017-11-24T01:43:47.276Z,6.60
2017-11-24T01:46:14.819Z,6.60
2017-11-24T01:48:42.432Z,6.60
2017-11-24T01:51:09.977Z,6.60
2017-11-24T01:53:37.516Z,6.60
2017-11-24T01:56:05.868Z,6.50
2017-11-24T01:58:33.412Z,6.50
2017-11-24T02:01:00.957Z,6.50
2017-11-24T02:03:29.325Z,6.50
2017-11-24T02:05:57.632Z,6.50
2017-11-24T02:08:25.948Z,6.50
2017-11-24T02:10:53.641Z,6.50
2017-11-24T02:13:21.189Z,6.50
2017-11-24T02:15:48.732Z,6.50
2017-11-24T02:18:17.283Z,6.60
2017-11-24T02:20:44.832Z,6.60
2017-11-24T02:23:12.372Z,6.70
2017-11-24T02:25:40.735Z,6.80
2017-11-24T02:28:08.288Z,6.70
2017-11-24T02:30:35.844Z,6.80
2017-11-24T02:33:03.453Z,6.90
2017-11-24T02:35:31.005Z,6.90
2017-11-24T02:37:58.549Z,6.90
2017-11-24T02:40:26.349Z,6.90
2017-11-24T02:42:53.903Z,6.90
2017-11-24T02:45:21.456Z,6.90
2017-11-24T02:47:49.048Z,6.90
2017-11-24T02:50:16.601Z,6.90
2017-11-24T02:52:44.152Z,6.80
2017-11-24T02:55:11.766Z,6.80
2017-11-24T02:57:39.312Z,6.80
2017-11-24T03:00:06.860Z,6.80
2017-11-24T03:02:35.405Z,6.70
2017-11-24T03:05:02.977Z,6.70
2017-11-24T03:07:30.525Z,6.70
2017-11-24T03:09:58.220Z,6.70
2017-11-24T03:12:25.780Z,6.80
2017-11-24T03:14:53.332Z,6.80
2017-11-24T03:17:21.859Z,6.80
2017-11-24T03:19:49.399Z,6.80
2017-11-24T03:22:16.945Z,6.80
2017-11-24T03:24:45.304Z,6.80
2017-11-24T03:27:12.852Z,6.80
2017-11-24T03:29:40.392Z,6.70
2017-11-24T03:32:07.984Z,6.70
2017-11-24T03:34:35.537Z,6.60
2017-11-24T03:37:03.087Z,6.60
2017-11-24T03:39:31.632Z,6.60
2017-11-24T03:41:59.177Z,6.50
2017-11-24T03:44:26.716Z,6.60
2017-11-24T03:46:54.312Z,6.60
2017-11-24T03:49:22.623Z,6.70
2017-11-24T03:51:50.181Z,6.70
2017-11-24T03:54:17.781Z,6.70
2017-11-24T03:56:45.325Z,6.80
2017-11-24T03:59:12.868Z,6.90
2017-11-24T04:01:41.220Z,6.90
2017-11-24T04:04:08.763Z,6.90
2017-11-24T04:06:36.316Z,7.00
2017-11-24T04:09:03.904Z,7.00
2017-11-24T04:11:31.448Z,7.00
2017-11-24T04:13:59.766Z,7.10
2017-11-24T04:16:27.349Z,7.10
2017-11-24T04:18:55.001Z,7.10
2017-11-24T04:21:22.559Z,7.30
2017-11-24T04:23:50.383Z,7.30
2017-11-24T04:26:17.938Z,7.30
2017-11-24T04:28:45.492Z,7.30
2017-11-24T04:31:13.099Z,7.30
2017-11-24T04:33:40.644Z,7.30
2017-11-24T04:36:08.196Z,7.40
2017-11-24T04:38:35.894Z,7.30
2017-11-24T04:41:03.437Z,7.30
2017-11-24T04:43:30.984Z,7.30
2017-11-24T04:45:58.572Z,7.40
2017-11-24T04:48:26.880Z,7.40
2017-11-24T04:50:54.430Z,7.40
2017-11-24T04:53:22.984Z,7.40
2017-11-24T04:55:50.532Z,7.40
2017-11-24T04:58:18.080Z,7.40
2017-11-24T05:00:45.678Z,7.50
2017-11-24T05:03:13.220Z,7.50
2017-11-24T05:05:41.533Z,7.50
2017-11-24T05:08:09.325Z,7.50
2017-11-24T05:10:36.872Z,7.50
2017-11-24T05:13:04.427Z,7.50
2017-11-24T05:15:32.787Z,7.60
2017-11-24T05:18:00.352Z,7.60
2017-11-24T05:20:27.904Z,7.60
2017-11-24T05:22:55.491Z,7.70
2017-11-24T05:25:23.814Z,7.70
2017-11-24T05:27:52.120Z,7.80
2017-11-24T05:30:19.713Z,7.70
2017-11-24T05:32:47.257Z,7.80
2017-11-24T05:35:14.820Z,7.70
2017-11-24T05:37:43.278Z,7.70
2017-11-24T05:40:10.828Z,7.70
2017-11-24T05:42:38.373Z,7.70
2017-11-24T05:45:05.980Z,7.70
2017-11-24T05:47:33.528Z,7.80
2017-11-24T05:50:01.145Z,7.80
2017-11-24T05:52:28.836Z,7.80
2017-11-24T05:54:57.151Z,7.80
2017-11-24T05:57:24.697Z,7.70
2017-11-24T05:59:53.096Z,7.70
2017-11-24T06:02:20.676Z,7.60
2017-11-24T06:04:48.224Z,7.70
2017-11-24T06:07:16.593Z,7.70
2017-11-24T06:09:44.148Z,7.60
2017-11-24T06:12:11.703Z,7.60
2017-11-24T06:14:39.304Z,7.60
2017-11-24T06:17:06.856Z,7.60
2017-11-24T06:19:34.421Z,7.60
2017-11-24T06:22:02.034Z,7.60
2017-11-24T06:24:29.599Z,7.50
2017-11-24T06:26:58.782Z,7.50
2017-11-24T06:29:26.368Z,7.50
2017-11-24T06:31:54.868Z,7.50
2017-11-24T06:34:22.411Z,7.50
2017-11-24T06:36:50.021Z,7.50
2017-11-24T06:39:17.567Z,7.50
2017-11-24T06:41:45.115Z,7.60
2017-11-24T06:44:12.732Z,7.70
2017-11-24T06:46:40.278Z,7.80
2017-11-24T06:49:07.828Z,7.90
2017-11-24T06:51:35.424Z,7.80
2017-11-24T06:54:02.972Z,7.80
2017-11-24T06:56:30.757Z,7.80
2017-11-24T06:58:58.371Z,7.80
2017-11-24T07:01:25.915Z,7.80
2017-11-24T07:03:53.460Z,7.70
2017-11-24T07:06:21.061Z,7.70
2017-11-24T07:08:49.624Z,7.60
2017-11-24T07:11:18.012Z,7.60
2017-11-24T07:13:45.604Z,7.60
2017-11-24T07:16:13.151Z,7.60
2017-11-24T07:18:40.699Z,7.60
2017-11-24T07:21:09.060Z,7.60
2017-11-24T07:23:36.884Z,7.50
2017-11-24T07:26:04.432Z,7.60
2017-11-24T07:28:32.981Z,7.50
2017-11-24T07:31:00.536Z,7.50
2017-11-24T07:33:28.084Z,7.50
2017-11-24T07:35:55.969Z,7.50
2017-11-24T07:38:23.512Z,7.50
2017-11-24T07:40:52.077Z,7.40
2017-11-24T07:43:19.668Z,7.40
2017-11-24T07:45:47.222Z,7.40
2017-11-24T07:48:15.556Z,7.40
2017-11-24T07:50:43.406Z,7.40
2017-11-24T07:53:11.453Z,7.40
2017-11-24T07:55:39.015Z,7.40
2017-11-24T07:58:06.620Z,7.40
2017-11-24T08:00:34.169Z,7.40
2017-11-24T08:03:01.720Z,7.40
2017-11-24T08:05:29.321Z,7.50
2017-11-24T08:07:56.869Z,7.50
2017-11-24T08:10:24.415Z,7.60
2017-11-24T08:12:52.781Z,7.60
2017-11-24T08:15:23.652Z,7.60
2017-11-24T08:17:51.211Z,7.60
2017-11-24T08:20:19.678Z,7.60
2017-11-24T08:22:47.221Z,7.60
2017-11-24T08:25:14.780Z,7.50
2017-11-24T08:27:42.576Z,7.50
2017-11-24T08:30:10.125Z,7.60
2017-11-24T08:32:38.821Z,7.60
2017-11-24T08:35:06.436Z,7.60
2017-11-24T08:37:33.980Z,7.60
2017-11-24T08:40:01.536Z,7.60
2017-11-24T08:42:30.593Z,7.60
2017-11-24T08:44:58.239Z,7.60
2017-11-24T08:47:31.517Z,7.70
2017-11-24T08:49:59.069Z,7.70
2017-11-24T08:52:27.381Z,7.80
2017-11-24T08:54:54.968Z,7.80
2017-11-24T08:57:22.516Z,7.80
2017-11-24T08:59:50.072Z,7.90
2017-11-24T09:02:17.671Z,8.00
2017-11-24T09:04:45.221Z,8.10
2017-11-24T09:07:12.772Z,8.10
2017-11-24T09:09:41.132Z,8.30
2017-11-24T09:12:08.681Z,8.30
2017-11-24T09:14:36.229Z,8.30
2017-11-24T09:17:03.833Z,8.40
2017-11-24T09:19:31.377Z,8.50
2017-11-24T09:21:58.928Z,8.60
2017-11-24T09:24:27.285Z,8.70
2017-11-24T09:26:54.845Z,8.70
2017-11-24T09:29:22.411Z,8.80
2017-11-24T09:31:50.029Z,8.90
2017-11-24T09:34:18.346Z,9.00
2017-11-24T09:36:45.887Z,9.00
2017-11-24T09:39:14.352Z,9.10
2017-11-24T09:41:41.900Z,9.10
2017-11-24T09:44:09.453Z,9.10
2017-11-24T09:46:37.252Z,9.10
2017-11-24T09:49:04.806Z,9.20
2017-11-24T09:51:32.352Z,9.20
2017-11-24T09:54:00.072Z,9.10
2017-11-24T09:56:27.621Z,9.20
2017-11-24T09:58:55.165Z,9.20
2017-11-24T10:01:22.764Z,9.20
2017-11-24T10:03:50.319Z,9.30
2017-11-24T10:06:17.871Z,9.30
2017-11-24T10:08:46.223Z,9.30
2017-11-24T10:11:13.777Z,9.30
2017-11-24T10:13:41.329Z,9.30
2017-11-24T10:16:09.132Z,9.30
2017-11-24T10:18:36.741Z,9.30
2017-11-24T10:21:10.937Z,9.30
2017-11-24T10:23:38.482Z,9.30
2017-11-24T10:26:06.046Z,9.30
2017-11-24T10:28:33.769Z,9.40
2017-11-24T10:31:01.324Z,9.40
2017-11-24T10:33:28.873Z,9.40
2017-11-24T10:35:56.460Z,9.40
2017-11-24T10:38:24.003Z,9.40
2017-11-24T10:40:51.559Z,9.40
2017-11-24T10:43:19.153Z,9.40
2017-11-24T10:45:46.728Z,9.30
2017-11-24T10:48:14.281Z,9.30
2017-11-24T10:50:41.997Z,9.30
2017-11-24T10:53:09.548Z,9.30
2017-11-24T10:55:37.093Z,9.20
2017-11-24T10:58:04.780Z,9.10
2017-11-24T11:00:32.327Z,9.10
2017-11-24T11:03:00.636Z,8.90
2017-11-24T11:05:28.237Z,8.90
2017-11-24T11:07:55.795Z,8.90
2017-11-24T11:10:23.360Z,8.90
2017-11-24T11:12:50.960Z,9.00
2017-11-24T11:15:18.510Z,9.00
2017-11-24T11:17:46.061Z,9.00
2017-11-24T11:20:13.674Z,9.10
2017-11-24T11:22:41.225Z,9.10
2017-11-24T11:25:08.775Z,9.10
2017-11-24T11:27:36.364Z,9.20
2017-11-24T11:30:03.908Z,9.30
2017-11-24T11:32:31.459Z,9.30
2017-11-24T11:34:59.056Z,9.30
2017-11-24T11:37:26.653Z,9.30
2017-11-24T11:39:54.213Z,9.40
2017-11-24T11:42:21.916Z,9.40
2017-11-24T11:44:49.464Z,9.40
2017-11-24T11:47:17.016Z,9.40
2017-11-24T11:49:44.697Z,9.40
2017-11-24T11:52:12.245Z,9.40
2017-11-24T11:54:40.558Z,9.60
2017-11-24T11:57:08.192Z,9.60
2017-11-24T11:59:35.740Z,9.70
2017-11-24T12:02:03.309Z,9.90
2017-11-24T12:04:30.908Z,10.10
2017-11-24T12:06:58.465Z,10.10
2017-11-24T12:09:26.024Z,10.10
2017-11-24T12:11:53.612Z,10.20
2017-11-24T12:14:21.194Z,10.20
2017-11-24T12:16:49.516Z,10.20
2017-11-24T12:19:17.310Z,10.10
2017-11-24T12:21:45.681Z,10.00
2017-11-24T12:24:14.373Z,10.00
2017-11-24T12:26:42.429Z,9.90
2017-11-24T12:29:09.988Z,9.70
2017-11-24T12:31:37.539Z,9.30
2017-11-24T12:34:05.917Z,9.60
2017-11-24T12:36:33.487Z,9.50
2017-11-24T12:39:03.837Z,9.40
2017-11-24T12:41:31.556Z,9.40
2017-11-24T12:43:59.864Z,9.30
2017-11-24T12:46:27.560Z,9.20
2017-11-24T12:48:55.465Z,9.30
2017-11-24T12:51:23.077Z,9.30
2017-11-24T12:53:50.644Z,9.20
2017-11-24T12:56:19.023Z,9.10
2017-11-24T12:58:46.577Z,9.10
2017-11-24T13:01:15.653Z,9.10
2017-11-24T13:03:43.245Z,9.10
2017-11-24T13:06:10.795Z,9.20
2017-11-24T13:08:38.347Z,9.20
2017-11-24T13:11:05.944Z,9.20
2017-11-24T13:13:33.501Z,9.10
2017-11-24T13:16:01.052Z,9.10
2017-11-24T13:18:29.890Z,9.00
2017-11-24T13:20:57.722Z,9.00
2017-11-24T13:23:26.046Z,8.90
2017-11-24T13:25:53.644Z,8.90
2017-11-24T13:28:21.212Z,8.80
2017-11-24T13:30:48.754Z,8.80
2017-11-24T13:33:16.461Z,8.80
2017-11-24T13:35:44.033Z,8.80
2017-11-24T13:38:11.603Z,8.70
2017-11-24T13:40:39.376Z,8.60
2017-11-24T13:43:06.920Z,8.60
2017-11-24T13:45:35.327Z,8.50
2017-11-24T13:48:02.929Z,8.50
2017-11-24T13:50:30.476Z,8.40
2017-11-24T13:52:58.029Z,8.40
2017-11-24T13:55:25.619Z,8.40
2017-11-24T13:57:53.289Z,8.40
2017-11-24T14:00:20.831Z,8.40
2017-11-24T14:02:48.424Z,8.40
2017-11-24T14:05:15.988Z,8.40
2017-11-24T14:07:43.533Z,8.40
2017-11-24T14:10:11.887Z,8.30
2017-11-24T14:12:39.437Z,8.30
2017-11-24T14:15:06.997Z,8.30
2017-11-24T14:17:34.589Z,8.30
2017-11-24T14:20:02.432Z,8.30
2017-11-24T14:22:30.748Z,8.20
2017-11-24T14:24:58.344Z,8.20
2017-11-24T14:27:25.889Z,8.20
2017-11-24T14:29:53.440Z,8.20
2017-11-24T14:32:21.109Z,8.20
2017-11-24T14:34:48.668Z,8.20
2017-11-24T14:37:17.182Z,8.20
2017-11-24T14:39:46.037Z,8.20
2017-11-24T14:42:14.056Z,8.20
2017-11-24T14:44:42.373Z,8.10
2017-11-24T14:47:09.977Z,8.10
2017-11-24T14:49:37.529Z,8.10
2017-11-24T14:52:05.319Z,8.10
2017-11-24T14:54:33.913Z,8.00
2017-11-24T14:57:01.521Z,7.90
2017-11-24T14:59:29.844Z,7.70
2017-11-24T15:04:27.467Z,7.60
2017-11-24T15:06:55.431Z,7.60
2017-11-24T15:09:23.005Z,7.50
2017-11-24T15:11:50.595Z,7.40
2017-11-24T15:14:18.316Z,7.40
2017-11-24T15:16:46.680Z,7.50
2017-11-24T15:19:14.360Z,7.40
2017-11-24T15:21:42.128Z,7.40
2017-11-24T15:24:09.879Z,7.40
2017-11-24T15:26:37.478Z,7.30
2017-11-24T15:29:05.580Z,7.30
2017-11-24T15:31:34.581Z,7.20
2017-11-24T15:34:04.114Z,7.20
2017-11-24T15:36:32.532Z,7.10
2017-11-24T15:39:01.396Z,7.10
2017-11-24T15:41:29.749Z,7.10
2017-11-24T15:43:57.295Z,7.10
2017-11-24T15:46:24.844Z,7.20
2017-11-24T15:48:52.444Z,7.20
2017-11-24T15:51:20.014Z,7.20
2017-11-24T15:53:47.953Z,7.30
2017-11-24T15:56:16.261Z,7.30
2017-11-24T15:58:43.804Z,7.30
2017-11-24T16:01:13.505Z,7.40
2017-11-24T16:03:42.073Z,7.40
2017-11-24T16:06:10.660Z,7.40
2017-11-24T16:08:43.730Z,7.40
2017-11-24T16:11:19.675Z,7.40
2017-11-24T16:13:48.688Z,7.30
2017-11-24T16:16:16.302Z,7.20
2017-11-24T16:18:44.957Z,7.10
2017-11-24T16:21:16.226Z,7.00
2017-11-24T16:23:43.781Z,7.00
2017-11-24T16:26:13.697Z,6.90
2017-11-24T16:28:44.106Z,6.80
2017-11-24T16:31:16.450Z,6.60
2017-11-24T16:33:49.589Z,6.60
2017-11-24T16:36:20.737Z,6.50
2017-11-24T16:38:50.981Z,6.40
2017-11-24T16:41:19.701Z,6.40
2017-11-24T16:43:50.738Z,6.40
2017-11-24T16:46:21.311Z,6.30
2017-11-24T16:48:52.993Z,6.30
2017-11-24T16:51:23.541Z,6.20
2017-11-24T16:53:52.594Z,6.10
2017-11-24T16:56:23.521Z,6.10
2017-11-24T16:58:57.840Z,6.10
2017-11-24T17:01:27.937Z,6.10
2017-11-24T17:03:57.661Z,6.10
2017-11-24T17:06:29.737Z,6.00
2017-11-24T17:08:58.306Z,6.00
2017-11-24T17:11:27.022Z,6.00
2017-11-24T17:13:55.907Z,6.00
2017-11-24T17:16:25.847Z,6.00
2017-11-24T17:18:54.569Z,5.90
2017-11-24T17:21:22.691Z,5.90
2017-11-24T17:23:51.151Z,6.00
2017-11-24T17:26:19.521Z,5.10
2017-11-24T17:28:48.235Z,5.90
2017-11-24T17:31:18.804Z,5.80
2017-11-24T17:33:47.352Z,5.80
2017-11-24T17:36:15.887Z,5.70
2017-11-24T17:38:44.429Z,5.70
2017-11-24T17:41:13.834Z,5.70
2017-11-24T17:43:42.306Z,5.60
2017-11-24T17:46:11.340Z,5.60
2017-11-24T17:48:40.242Z,5.60
2017-11-24T17:51:11.017Z,5.60
2017-11-24T17:53:39.341Z,5.60
2017-11-24T17:56:08.489Z,5.50
2017-11-24T17:58:36.365Z,5.50
2017-11-24T18:01:05.038Z,5.50
2017-11-24T18:03:33.765Z,5.40
2017-11-24T18:06:04.228Z,5.40
2017-11-24T18:08:32.185Z,5.40
2017-11-24T18:11:00.761Z,5.40
2017-11-24T18:13:28.746Z,5.40
2017-11-24T18:15:56.584Z,5.40
2017-11-24T18:18:24.492Z,5.40
2017-11-24T18:20:53.015Z,5.30
2017-11-24T18:23:22.743Z,5.30
2017-11-24T18:25:51.101Z,5.30
2017-11-24T18:28:18.919Z,5.30
2017-11-24T18:30:48.329Z,5.30
2017-11-24T18:33:16.090Z,5.30
2017-11-24T18:35:43.684Z,5.40
2017-11-24T18:38:12.712Z,5.40
2017-11-24T18:40:43.299Z,5.30
2017-11-24T18:43:11.300Z,5.30
2017-11-24T18:45:39.553Z,5.20
2017-11-24T18:48:08.631Z,5.20
2017-11-24T18:50:36.384Z,5.20
2017-11-24T18:53:03.986Z,5.20
2017-11-24T18:55:32.430Z,5.10
2017-11-24T18:58:01.218Z,5.10
2017-11-24T19:00:29.012Z,5.10
2017-11-24T19:02:56.773Z,5.10
2017-11-24T19:05:25.170Z,5.10
2017-11-24T19:07:53.054Z,5.10
2017-11-24T19:10:21.472Z,5.10
2017-11-24T19:12:50.529Z,5.10
2017-11-24T19:15:18.828Z,5.00
2017-11-24T19:17:46.436Z,5.10
2017-11-24T19:20:13.996Z,5.10
2017-11-24T19:22:41.653Z,5.20
2017-11-24T19:25:10.348Z,5.30
2017-11-24T19:27:38.327Z,5.30
2017-11-24T19:30:06.309Z,5.40
2017-11-24T19:32:34.087Z,5.40
2017-11-24T19:35:01.716Z,5.50
2017-11-24T19:37:29.301Z,5.50
2017-11-24T19:39:57.674Z,5.50
2017-11-24T19:42:26.842Z,5.50
2017-11-24T19:44:54.749Z,5.50
2017-11-24T19:47:23.147Z,5.40
2017-11-24T19:49:50.712Z,5.30
2017-11-24T19:52:19.050Z,5.30
2017-11-24T19:54:46.712Z,5.20
2017-11-24T19:57:14.300Z,5.20
2017-11-24T19:59:41.869Z,5.20
2017-11-24T20:02:09.512Z,5.10
2017-11-24T20:04:38.021Z,5.10
2017-11-24T20:07:07.188Z,5.00
2017-11-24T20:09:34.896Z,5.00
2017-11-24T20:12:03.229Z,4.90
2017-11-24T20:14:30.777Z,4.90
2017-11-24T20:16:58.630Z,4.90
2017-11-24T20:19:27.267Z,4.80
2017-11-24T20:21:55.320Z,4.70
2017-11-24T20:24:24.046Z,4.70
2017-11-24T20:26:51.626Z,4.70
2017-11-24T20:29:19.176Z,4.70
2017-11-24T20:31:46.860Z,4.70
2017-11-24T20:34:14.474Z,4.70
2017-11-24T20:36:42.022Z,4.70
2017-11-24T20:39:09.686Z,4.60
2017-11-24T20:41:37.245Z,4.60
2017-11-24T20:44:04.835Z,4.60
2017-11-24T20:46:32.434Z,4.60
2017-11-24T20:48:59.992Z,4.60
2017-11-24T20:51:28.166Z,4.50
2017-11-24T20:53:55.862Z,4.50
2017-11-24T20:56:23.929Z,4.60
2017-11-24T20:58:52.293Z,4.70
2017-11-24T21:01:20.196Z,4.70
2017-11-24T21:03:48.553Z,4.70
2017-11-24T21:06:16.525Z,4.70
2017-11-24T21:08:44.218Z,4.70
2017-11-24T21:11:12.052Z,4.70
2017-11-24T21:13:39.608Z,4.70
2017-11-24T21:16:07.208Z,4.80
2017-11-24T21:18:35.532Z,4.80
2017-11-24T21:21:03.088Z,4.80
2017-11-24T21:23:31.937Z,4.90
2017-11-24T21:25:59.556Z,4.90
2017-11-24T21:28:27.113Z,4.90
2017-11-24T21:30:55.535Z,4.80
2017-11-24T21:33:23.088Z,4.80
2017-11-24T21:35:50.684Z,4.80
2017-11-24T21:38:18.281Z,4.70
2017-11-24T21:40:45.832Z,4.70
2017-11-24T21:43:13.376Z,4.60
2017-11-24T21:45:40.975Z,4.60
2017-11-24T21:48:08.520Z,4.60
2017-11-24T21:50:36.072Z,4.60
2017-11-24T21:53:04.428Z,4.50
2017-11-24T21:55:31.978Z,4.50
2017-11-24T21:57:59.534Z,4.50
2017-11-24T22:00:27.231Z,4.50
2017-11-24T22:02:54.782Z,4.60
2017-11-24T22:05:22.333Z,4.60
2017-11-24T22:07:50.049Z,4.60
2017-11-24T22:10:17.597Z,4.60
2017-11-24T22:12:45.153Z,4.60
2017-11-24T22:15:13.543Z,4.60
2017-11-24T22:17:41.087Z,4.50
2017-11-24T22:20:08.636Z,4.50
2017-11-24T22:22:36.360Z,4.50
2017-11-24T22:25:03.908Z,4.50
2017-11-24T22:27:32.228Z,4.50
2017-11-24T22:29:59.825Z,4.50
2017-11-24T22:32:27.389Z,4.50
2017-11-24T22:34:54.949Z,4.40
2017-11-24T22:37:22.551Z,4.40
2017-11-24T22:39:50.115Z,4.40
2017-11-24T22:42:17.669Z,4.40
2017-11-24T22:44:45.276Z,4.40
2017-11-24T22:47:12.824Z,4.30
2017-11-24T22:49:40.369Z,4.30
2017-11-24T22:52:07.976Z,4.30
2017-11-24T22:54:35.525Z,4.30
2017-11-24T22:57:03.089Z,4.30
2017-11-24T22:59:30.797Z,4.30
2017-11-24T23:01:58.745Z,4.30
2017-11-24T23:04:26.300Z,4.30
2017-11-24T23:06:54.654Z,4.20
2017-11-24T23:09:22.213Z,4.20
2017-11-24T23:11:49.769Z,4.30
2017-11-24T23:14:17.368Z,4.30
2017-11-24T23:16:46.019Z,4.30
2017-11-24T23:19:13.577Z,4.30
2017-11-24T23:21:41.170Z,4.30
2017-11-24T23:24:09.060Z,4.30
2017-11-24T23:26:36.603Z,4.40
2017-11-24T23:29:04.312Z,4.50
2017-11-24T23:31:31.860Z,4.50
2017-11-24T23:33:59.413Z,4.50
2017-11-24T23:36:27.016Z,4.60
2017-11-24T23:38:54.568Z,4.60
2017-11-24T23:41:22.124Z,4.60
2017-11-24T23:43:49.814Z,4.60
2017-11-24T23:46:17.359Z,4.60
2017-11-24T23:48:45.673Z,4.60
2017-11-24T23:51:13.440Z,4.70
2017-11-24T23:53:40.991Z,4.70
2017-11-24T23:56:09.313Z,4.70
2017-11-24T23:58:36.912Z,4.70
